Timeline UpdatesTrip UpdatesNews PostsPvt PostsTravel TipsAdmin PostsConv PostsFollowed PostsChat RequestsBlog PostsPNR Posts

Disclaimer
Search
 
 
Tue Jul 29, 2014 18:15:48 ISTHomeTrainsΣChainsAtlasPNRForumGalleryNewsFAQTripsMembersLoginFeedback
No Recent News for this Train
Other Trains in the News **new
Latest...
Monsoon TT Updated W.e.f. 1st July to 30th Sept. 2014
Mon Jun 30, 2014 (04:42PM)
⇐ Return Journey: Train# 16335

16336/Nagercoil - Gandhidham Express

Jun 30 (4:41PM)
Change Departure Station:
Change Arrival Station:
Post a Train Travel TipPost a Train Travel Tip **new
Post a Comment/Question/Picture/VideoPost a Comment/Question/Picture/Video
Pantry/Catering
✓ Pantry Car Avbl
✓ Catering Avbl
RSA - Rake Sharing
06309/06310/16335/16336 has RSA.
Rake/Coach Composition
LOCO-SLR-LD-GEN-S1-S2-S3-S4-S5-S6-PC-S7-S8-SS9-S10-S11-S12-A1-B2-B1-GEN-GEN-SLR; Coach position at Ahmedabad.
Loco
NCJ to SRR RPM/ED WAP4 SRR to GIMB ERS WDM3A
News    PNR    Forum    Time-Table    Availability    Fare Chart    Map    Arr/Dep History    Trips    Gallery    ΣChains    X/O    Timeline    
Travel Time: 42h 37m    49 halts    Distance: 2416 km    Avg Speed: 56 km/hr
Type: Mail/Express
Zone: SR/Southern
Departs @ 14:00 (Avg 5m late)
Platform# 1
  T    
Nagercoil Junction/NCJ 
Arrives @ 08:37 +2 nights (Avg 31m late)
Platform# 1
    T  
Viramgam Junction/VG 

49 halts. 310 intermediate Stations between Nagercoil Junction and Viramgam Junction

Show ALL intermediate Stations  Show Old Time-Table

#CodeStation NameX/OArrivesAvgDepartsAvgHaltPFDay#KmSpeedElevZoneAddress
1NCJ»Nagercoil Junction (4)»  -14:00+5110.04722mSRNagercoil-629002, Tamil Nadu
2TVCTrivandrum Central (5)X  15:30+715:35+75m--171.17812mSRThiruvananthapuram 695001, Kerala
3QLNKollam Junction (6)  16:25+1716:30+175m21135.76416mSRKollam 0474-2746194, Kerala
4KYJKayamkulam Junction (5)X  17:08+2017:10+202m--1176.56111mSRAlappuzha Ph;0479-2442042, Kerala
5CNGRChengannur (3)  17:30+2617:32+292m31196.7686mSRPh: 0479-2452340, Kerala
6TRVLTiruvalla (2)  17:40+3317:42+332m21205.84127mSRPh: 0469-2601314, Kerala
7KTYMKottayam (3)X  18:20+3218:25+395m11231.53815mSRTel: 0481 2563535, Kerala
8ERNErnakulam Town (North) (2)X  20:00+2720:05+265m11291.4569mSRTel: 0484 2395198, Kerala
9AWYAluva (3)  20:23+2920:25+302m--1308.36112mSRPh: 0484-2624141, Kerala
10TCRThrissur (4)X  21:19+3221:22+323m21362.9346mSRThrissur Tel: 0487 2423150, Kerala
11SRRShoranur Junction (7)  22:20+2422:30+4210m--1395.85326mSRShoranur ph.no 0466-2222913, Kerala
12PTBPattambi (2)  22:43+4422:45+432m--1407.46221mSRPattambi, Kerala
13KTUKuttippuram (2)X  23:03+4423:05+442m--1425.85017mSRKuttippuram, Kerala
14TIRTirur (3)  23:23+4323:25+432m--1440.9749mSRTel: 0494 2422240, Kerala
15PGIParappangadi (2)X  23:38+4623:40+462m--1457.07019mSRParappanangadi, Kerala
16FKFerok (2)  23:53+4823:55+472m--1472.22419mSRFeroke, Kerala
17CLTKozhikode Main (4)  00:20+3500:25+365m42482.16311mSRCalicut Tel: 0495 2701234, Kerala
18QLDKoyilandy (3)  00:48+3900:50+382m--2506.57711mSRQuilandi, Kerala
19BDJVadakara (2)  01:07+3801:09+382m22528.47011mSRCalicut / Station Ph No : 0496-2524254, Kerala
20TLYThalassery (2)  01:28+4201:30+422m--2550.5419mSRKannur, Kerala
21CANKannur Main (3)  02:00+3502:05+365m12571.26714mSRKannur Tel: 0497 2705555, Kerala
22KPQKannapuram (2)  02:18+3802:20+382m12585.7649mSRKannur District, Kerala
23PAYPayyanur (3)  02:38+3502:40+352m--2604.8540mSRKannur District, Kerala
24KGQKasaragod (3)  03:38+2203:40+232m--2657.24218mSRTel: 04994 220800, Kerala
25MAJNMangalore Junction (3)X  04:50+305:00+1110m32706.33124mSRMangalore 575001, Karnataka
26SLSurathkal (1)  05:40+1505:42+152m12726.87022mKRSurathkal, Karnataka
27UDUdupi (2)  06:18+1306:20+172m--2768.78018mKRUdupi, Karnataka
28KUDAKundapura (2)X  06:44+2406:46+222m12800.75313mKRBasrur, Karnataka
29BYNRByndoor Mookambika Road (1)X  07:24+007:26+02m12834.34510mKRUdupi Dist. 576214, Karnataka
30MRDWMurdeshwar (2)  08:06+1808:08+362m--2864.16328mKRMurudeshwara, Karnataka
31KTKumta (2)X  08:46+3908:48+492m--2904.24520mKRKumta - 581362, Karnataka
32KAWRKarwar (2)  10:02+4610:04+472m--2959.34514mKRKarwar, Karnataka
33CNOCanacona (1)  10:40+3610:42+382m12986.44329mKRPh:-0832-2643644., Goa
34MAOMadgaon Junction (3)  11:30+3111:40+3110m221020.65011mKRMadgaon 403601, Goa
35SWVSawantwadi Road (2)X  13:10+4613:12+532m121094.96540mKRDist. Sindhudurg, Maharashtra
36RNRatnagiri (3)X  15:40+2015:45+225m221255.459129mKRRatnagiri 415612, Maharashtra
37CHIChiplun (2)X  17:02+4117:04+382m121330.84812mKRChiplun, Maharashtra
38PNVLPanvel Junction (7)  21:20+1421:25+215m721534.5-10mCRPanvel, Maharashtra
39BIRDBhiwandi Road (4)  22:23+2422:25+252m421878.03626mCRBhiwandi, Maharashtra
40BSRVasai Road (7)  23:10+923:15+155m621905.3607mWRThane-401202, Maharashtra
41BORBoisar (3)00:06+2200:08+222m--31956.18417mWRBoisar Tel.no-02525-266626, Maharashtra
42VAPIVapi (3)X  00:58+3301:00+332m--32026.35627mWRVapi, Gujarat
43BLValsad (3)X  01:28+2901:30+372m132052.64115mWRValsad, Gujarat
44STSurat (4)O  03:10+303:22+512m232121.37519mWRSurat 395001, Gujarat
45AKVAnkleshwar Junction (4)X  04:02+1704:04+182m132171.26319mWRAnkleshwar, Gujarat
46BRCVadodara Junction (7)XO  05:20+1805:22+222m232251.16736mWRVadodara 390005, Gujarat
47ANNDAnand Junction (6)X  05:54+3105:56+312m232286.97444mWRAnand, Gujarat
48NDNadiad Junction (4)XO  06:11+3106:13+312m232305.35937mWRNadiad, Gujarat
49MANManinagar (2)  06:56+5506:58+552m132347.71150mWRAhmadabad, Gujarat
50ADIAhmedabad Junction (12)  07:15+2007:35+2120m132350.96351mWRAhmedabad, Gujarat
51VG•Viramgam Junction (5)•  08:37+3108:39+312m132416.35529mWRViramgam, Gujarat
52DHGDhrangadhra Junction (3)  09:50+2509:52+252m--32481.07454mWRDhrangadhra, Gujarat
53MALBMaliya Miyana Junction (2)  10:54+3110:56+312m--32557.9496mWRMalia, Gujarat
54SIOBSamakhiali Junction (3)  11:44+2011:46+212m132597.16042mWRSamakhiali, Gujarat
55BCOBBhachau (3)  12:02+2212:04+222m132613.03044mWRBhachau, Gujarat
56GIMBGandhidham Junction (3)  13:20+2-332650.8-12mWRGandhidham, Gujarat
Scroll to Top
Scroll to Bottom